Time;durP1;ratioP1;P1;durP2;ratioP2;P2;SDS_P1;SDS_P2;PMS_P1;PMS_P2;Temp;Humidity;BMP_temperature;BMP_pressure;BME280_temperature;BME280_humidity;BME280_pressure;Samples;Min_cycle;Max_cycle;Signal;HPM_P1;HPM_P2
2023/01/28 00:00:55;;;;;;;56.70;26.90;;;;;;;-2.81;81.97;101075.59;107950;1253;63633;-91
2023/01/28 00:03:43;;;;;;;45.50;25.80;;;;;;;-2.85;82.09;101065.99;108040;1252;75090;-90
2023/01/28 00:06:17;;;;;;;54.60;27.00;;;;;;;-2.78;82.23;101066.19;108691;1253;61241;-88
2023/01/28 00:08:53;;;;;;;;;;;;;;;-2.72;82.24;101062.44;109420;1253;60046;-89
2023/01/28 00:11:25;;;;;;;54.90;27.10;;;;;;;-2.66;82.17;101062.10;108500;1253;73728;-90
2023/01/28 00:13:56;;;;;;;46.80;25.90;;;;;;;-2.63;82.01;101054.91;108666;1254;63640;-91
2023/01/28 00:16:29;;;;;;;49.00;26.60;;;;;;;-2.66;81.60;101052.69;109506;1253;72236;-90
2023/01/28 00:18:59;;;;;;;62.60;28.80;;;;;;;-2.71;81.16;101046.86;108114;1254;60636;-91
2023/01/28 00:21:34;;;;;;;43.80;23.70;;;;;;;-2.76;81.22;101050.98;108756;1253;59394;-89
2023/01/28 00:24:08;;;;;;;46.80;26.60;;;;;;;-2.82;81.11;101044.45;108712;1254;72873;-90
2023/01/28 00:26:39;;;;;;;48.60;26.80;;;;;;;-2.87;81.33;101043.23;108321;1252;64622;-93
2023/01/28 00:29:12;;;;;;;53.00;27.00;;;;;;;-2.92;81.41;101046.65;107279;1254;73526;-93
2023/01/28 00:31:58;;;;;;;55.00;27.40;;;;;;;-2.96;81.58;101046.65;107123;1257;60532;-94
2023/01/28 00:34:32;;;;;;;54.00;27.40;;;;;;;-2.99;81.79;101046.11;107246;1254;60616;-91
2023/01/28 00:37:02;;;;;;;49.60;25.70;;;;;;;-2.95;81.98;101048.18;107088;1254;74064;-90
2023/01/28 00:39:39;;;;;;;45.60;27.80;;;;;;;-2.93;81.98;101046.14;107256;1253;64084;-89
2023/01/28 00:42:09;;;;;;;50.20;26.80;;;;;;;-2.94;81.74;101038.10;107085;1253;72662;-94
2023/01/28 00:44:42;;;;;;;48.30;28.20;;;;;;;-2.95;81.64;101034.34;106977;1253;59750;-90
2023/01/28 00:47:14;;;;;;;56.00;32.20;;;;;;;-2.97;82.04;101031.76;107009;1255;60137;-91
2023/01/28 00:49:50;;;;;;;52.50;28.60;;;;;;;-3.00;81.40;101035.69;107040;1257;74716;-92
2023/01/28 00:52:21;;;;;;;46.00;28.70;;;;;;;-3.06;81.32;101039.77;107803;1253;63838;-91
2023/01/28 00:54:58;;;;;;;57.70;30.40;;;;;;;-3.12;81.74;101037.36;108290;1254;72385;-92
2023/01/28 00:57:29;;;;;;;50.00;26.70;;;;;;;-3.11;82.01;101033.43;109114;1253;61172;-92
2023/01/28 01:00:01;;;;;;;49.50;26.90;;;;;;;-3.05;82.14;101037.90;109628;1253;60116;-92
2023/01/28 01:02:32;;;;;;;52.90;30.70;;;;;;;-3.02;82.23;101030.73;108814;1253;72994;-89
2023/01/28 01:05:07;;;;;;;49.90;28.20;;;;;;;-3.00;82.11;101032.27;108381;1252;62685;-90
2023/01/28 01:07:43;;;;;;;51.30;31.00;;;;;;;-3.02;82.17;101033.11;107205;1253;73619;-91
2023/01/28 01:10:14;;;;;;;50.10;28.40;;;;;;;-3.04;82.28;101030.20;106944;1254;59190;-92
2023/01/28 01:12:48;;;;;;;58.90;31.40;;;;;;;-3.09;82.01;101022.67;106810;1254;61007;-91
2023/01/28 01:15:36;;;;;;;51.40;28.90;;;;;;;-3.13;82.23;101016.85;106994;1253;74021;-92
2023/01/28 01:18:06;;;;;;;52.30;29.00;;;;;;;-3.14;82.00;101018.21;107542;1253;64934;-92
2023/01/28 01:20:38;;;;;;;49.60;25.20;;;;;;;-3.17;82.30;101011.71;106731;1253;73416;-92
2023/01/28 01:23:28;;;;;;;48.80;25.80;;;;;;;-3.20;82.28;101007.24;106668;1257;61711;-89
2023/01/28 01:25:57;;;;;;;41.20;25.00;;;;;;;-3.22;82.29;101009.47;106823;1254;61252;-92
2023/01/28 01:28:26;;;;;;;43.30;25.90;;;;;;;-3.28;82.58;101008.61;106815;1253;73999;-91
2023/01/28 01:31:07;;;;;;;47.40;24.90;;;;;;;-3.29;82.74;101016.29;106933;1260;64767;-93
2023/01/28 01:33:57;;;;;;;39.30;23.70;;;;;;;-3.28;82.98;101015.42;106695;1257;73670;-93
2023/01/28 01:36:27;;;;;;;48.30;24.70;;;;;;;-3.29;82.82;101013.22;106816;1253;60529;-92
2023/01/28 01:38:56;;;;;;;49.00;26.70;;;;;;;-3.23;83.46;101013.06;106874;1254;61303;-91
2023/01/28 01:41:31;;;;;;;52.00;27.50;;;;;;;-3.21;83.01;101006.56;107235;1252;73007;-92
2023/01/28 01:44:01;;;;;;;48.50;26.50;;;;;;;-3.24;82.77;101008.79;109619;1253;64813;-92
2023/01/28 01:46:48;;;;;;;55.20;29.50;;;;;;;-3.35;82.66;101001.21;107334;1257;73500;-93
2023/01/28 01:49:24;;;;;;;56.40;28.50;;;;;;;-3.40;82.44;101014.54;108281;1257;60079;-90
2023/01/28 01:52:18;;;;;;;51.20;27.30;;;;;;;-3.46;82.44;101021.70;107881;1257;61005;-90
2023/01/28 01:54:50;;;;;;;56.60;27.90;;;;;;;-3.49;82.65;101028.02;107661;1257;71848;-87
2023/01/28 01:57:26;;;;;;;46.50;27.80;;;;;;;-3.51;82.57;101024.25;107159;1257;64004;-89
2023/01/28 02:00:04;;;;;;;43.50;25.30;;;;;;;-3.54;82.54;101025.94;106816;1257;73736;-92
2023/01/28 02:02:58;;;;;;;50.80;24.80;;;;;;;-3.61;82.32;101018.73;106711;1257;59767;-92
2023/01/28 02:05:28;;;;;;;46.50;21.70;;;;;;;-3.65;82.18;101017.85;106449;1257;60421;-92
2023/01/28 02:08:19;;;;;;;48.40;24.10;;;;;;;-3.73;81.90;101013.71;106796;1256;73082;-94
2023/01/28 02:11:11;;;;;;;44.30;22.00;;;;;;;-3.86;81.79;101010.23;107176;1257;63709;-91
2023/01/28 02:13:52;;;;;;;42.10;23.10;;;;;;;-3.99;82.03;101010.16;106518;1256;72625;-93
2023/01/28 02:16:26;;;;;;;41.20;22.40;;;;;;;-4.10;82.04;101003.26;106516;1258;61952;-91
2023/01/28 02:19:09;;;;;;;41.90;21.40;;;;;;;-4.15;82.00;100996.40;107758;1253;60621;-90
2023/01/28 02:22:15;;;;;;;41.10;20.10;;;;;;;-4.21;81.93;100991.41;109638;1253;73147;-92
2023/01/28 02:24:56;;;;;;;37.60;21.00;;;;;;;-4.28;82.40;100993.41;107585;1261;63787;-90
2023/01/28 02:27:35;;;;;;;36.50;20.30;;;;;;;-4.31;82.74;100994.75;108617;1257;72640;-91
2023/01/28 02:30:12;;;;;;;37.00;20.10;;;;;;;-4.33;82.91;100989.80;107765;1257;59741;-92
2023/01/28 02:32:52;;;;;;;34.80;18.40;;;;;;;-4.28;83.08;100995.80;107043;1257;61325;-90
2023/01/28 02:35:41;;;;;;;43.70;21.30;;;;;;;-4.29;82.91;100997.66;107016;1257;73112;-92
2023/01/28 02:38:36;;;;;;;46.00;20.70;;;;;;;-4.31;82.96;100996.80;107504;1257;63714;-92
2023/01/28 02:41:10;;;;;;;36.90;18.90;;;;;;;-4.28;82.91;100996.48;106968;1258;73645;-92
2023/01/28 02:43:40;;;;;;;45.60;20.20;;;;;;;-4.29;82.70;100992.55;107112;1257;60360;-90
2023/01/28 02:49:13;;;;;;;46.90;23.20;;;;;;;-4.30;82.82;100995.11;107172;1257;74067;-92
2023/01/28 02:51:50;;;;;;;40.10;21.10;;;;;;;-4.26;83.55;100996.67;106349;1258;63602;-92
2023/01/28 02:54:22;;;;;;;42.00;20.60;;;;;;;-4.23;83.26;100990.02;105462;1258;72716;-93
2023/01/28 02:57:13;;;;;;;45.00;21.60;;;;;;;-4.22;83.50;100983.56;105614;1257;61941;-92
2023/01/28 02:59:56;;;;;;;35.40;18.30;;;;;;;-4.22;83.30;100992.95;105615;1257;61315;-91
2023/01/28 03:02:34;;;;;;;35.80;19.60;;;;;;;-4.24;83.15;100984.39;105957;1256;72988;-92
2023/01/28 03:05:10;;;;;;;34.90;19.20;;;;;;;-4.27;83.37;100980.46;106677;1254;63805;-88
2023/01/28 03:07:42;;;;;;;35.40;18.20;;;;;;;-4.29;83.37;100976.51;106467;1254;72405;-90
2023/01/28 03:10:12;;;;;;;38.10;19.50;;;;;;;-4.33;83.38;100980.41;109179;1254;59157;-90
2023/01/28 03:36:50;;;;;;;31.50;17.30;;;;;;;-4.38;83.82;100964.84;107735;1260;72492;-91
2023/01/28 03:39:37;;;;;;;39.90;20.90;;;;;;;-4.39;84.07;100959.38;106385;1259;59710;-88
2023/01/28 03:42:17;;;;;;;36.30;19.90;;;;;;;-4.40;83.76;100958.35;106694;1259;60016;-90
2023/01/28 03:45:02;;;;;;;31.60;17.60;;;;;;;-4.38;84.13;100955.29;109148;1259;72672;-92
2023/01/28 03:47:32;;;;;;;33.10;20.30;;;;;;;-4.33;84.10;100954.30;106831;1259;63538;-92
2023/01/28 03:50:06;;;;;;;38.80;20.50;;;;;;;-4.33;83.69;100955.83;105950;1260;72649;-93
2023/01/28 03:52:49;;;;;;;40.40;20.40;;;;;;;-4.30;83.78;100952.44;107296;1259;60409;-92
2023/01/28 03:55:31;;;;;;;40.00;22.00;;;;;;;-4.28;83.73;100948.02;107464;1259;60337;-92
2023/01/28 03:58:00;;;;;;;38.60;20.70;;;;;;;-4.26;83.32;100944.94;105571;1259;72703;-92
2023/01/28 04:00:28;;;;;;;34.20;19.80;;;;;;;-4.25;83.19;100949.91;106284;1259;64499;-91
2023/01/28 04:02:57;;;;;;;34.50;19.90;;;;;;;-4.30;83.13;100949.37;106553;1259;73997;-93
2023/01/28 04:05:26;;;;;;;37.70;20.00;;;;;;;-4.33;83.18;100946.79;107778;1259;61195;-90
2023/01/28 04:07:56;;;;;;;37.90;20.00;;;;;;;-4.37;83.22;100949.15;107609;1259;61292;-91
2023/01/28 08:59:12;;;;;;;;;;;;;;;;;;;;;
2023/01/28 09:03:45;;;;;;;21.00;14.10;;;;;;;-3.45;82.13;100969.74;108504;1253;65198;-93
2023/01/28 09:08:37;;;;;;;23.20;13.90;;;;;;;-3.44;82.81;100961.04;108403;1257;70317;-94
2023/01/28 09:13:39;;;;;;;24.10;14.30;;;;;;;-3.30;82.59;100956.27;108336;1260;59674;-92
2023/01/28 09:39:17;;;;;;;23.50;14.40;;;;;;;-2.84;81.99;100924.02;109662;1255;59561;-93
2023/01/28 09:43:46;;;;;;;20.70;13.60;;;;;;;-2.85;82.26;100914.27;109857;1238;71838;-95
2023/01/28 10:18:49;;;;;;;24.50;13.90;;;;;;;-2.25;80.81;100899.10;110655;1238;59645;-92
2023/01/28 10:21:50;;;;;;;28.20;15.00;;;;;;;-2.23;80.99;100892.25;111063;1242;71092;-91
2023/01/28 10:24:57;;;;;;;23.10;14.90;;;;;;;-2.12;81.13;100889.80;110672;1238;63356;-92
2023/01/28 10:28:37;;;;;;;24.80;15.80;;;;;;;-1.94;81.39;100886.14;110742;1243;71343;-93
2023/01/28 10:32:43;;;;;;;25.10;14.70;;;;;;;-1.77;80.82;100881.44;111645;1235;58780;-93
2023/01/28 11:07:57;;;;;;;;;;;;;;;;;;;;;
2023/01/28 11:11:48;;;;;;;25.10;14.50;;;;;;;-1.47;79.50;100858.80;111491;1235;59188;-95
2023/01/28 11:15:37;;;;;;;19.50;13.20;;;;;;;-1.54;79.74;100866.39;112037;1236;70558;-94
2023/01/28 11:19:28;;;;;;;25.70;15.10;;;;;;;-1.68;79.76;100864.77;111522;1237;62687;-95
2023/01/28 11:23:01;;;;;;;27.80;15.10;;;;;;;-1.75;80.48;100860.02;111420;1241;71486;-94
2023/01/28 11:26:52;;;;;;;24.90;14.30;;;;;;;-1.72;80.61;100861.02;111917;1231;59655;-94
2023/01/28 11:37:43;;;;;;;26.10;15.80;;;;;;;-1.47;80.18;100853.66;112689;1231;63642;-92
2023/01/28 11:41:15;;;;;;;22.40;12.30;;;;;;;-1.45;80.38;100852.27;112824;1230;73252;-92
2023/01/28 11:53:23;;;;;;;28.80;16.70;;;;;;;-1.35;80.45;100838.99;111615;1231;71636;-92
2023/01/28 11:56:39;;;;;;;29.70;16.90;;;;;;;-1.28;80.26;100832.09;111589;1233;62612;-94
2023/01/28 12:00:08;;;;;;;31.10;17.10;;;;;;;-1.25;80.07;100830.34;110814;1240;72323;-92
2023/01/28 12:03:31;;;;;;;30.60;17.50;;;;;;;-1.24;80.02;100828.61;111090;1244;62511;-94
2023/01/28 12:07:07;;;;;;;32.90;18.00;;;;;;;-1.22;79.97;100823.46;111285;1243;59324;-94
2023/01/28 12:15:18;;;;;;;27.40;14.80;;;;;;;-1.22;79.89;100821.91;112463;1230;62091;-93
2023/01/28 12:19:33;;;;;;;27.30;16.60;;;;;;;-1.26;80.37;100830.02;105260;1288;600606;-93
2023/01/28 12:22:53;;;;;;;27.50;17.10;;;;;;;-1.25;80.43;100826.57;107232;1272;60776;-93
2023/01/28 12:26:23;;;;;;;26.90;16.30;;;;;;;-1.22;80.31;100824.66;107208;1279;60301;-95
2023/01/28 12:34:10;;;;;;;23.40;14.50;;;;;;;-1.20;80.50;100830.48;105083;1259;5004458;-92
2023/01/28 12:37:56;;;;;;;20.30;12.80;;;;;;;-1.09;80.54;100824.89;107561;1270;73217;-94
2023/01/28 12:41:09;;;;;;;23.10;15.50;;;;;;;-0.94;80.29;100827.00;108030;1273;59119;-94
2023/01/28 12:44:35;;;;;;;25.30;16.50;;;;;;;-0.89;80.01;100830.20;109095;1256;58749;-93
2023/01/28 17:14:38;;;;;;;26.10;15.70;;;;;;;-0.74;83.09;100910.55;103544;1285;613371;-86
2023/01/28 17:17:05;;;;;;;21.40;14.20;;;;;;;-0.52;82.29;100909.16;104858;1263;130721;-86
2023/01/28 17:19:32;;;;;;;26.50;15.00;;;;;;;-0.47;82.03;100912.39;105160;1264;61234;-88
2023/01/28 17:21:59;;;;;;;22.70;13.80;;;;;;;-0.43;81.51;100911.65;105372;1264;73329;-88
2023/01/28 17:24:28;;;;;;;19.30;13.60;;;;;;;-0.44;81.19;100910.63;105184;1269;64923;-86
2023/01/28 17:26:55;;;;;;;22.00;12.80;;;;;;;-0.45;80.80;100911.31;105180;1264;73835;-87
2023/01/28 17:29:22;;;;;;;24.90;16.00;;;;;;;-0.46;80.59;100909.63;105144;1269;62185;-86
2023/01/28 17:31:49;;;;;;;25.80;14.70;;;;;;;-0.48;80.45;100909.98;105202;1264;61376;-86
2023/01/28 17:34:16;;;;;;;21.80;13.70;;;;;;;-0.49;80.41;100908.80;105427;1264;73293;-86
2023/01/28 17:36:43;;;;;;;19.80;12.50;;;;;;;-0.47;80.36;100902.59;105417;1267;64666;-86
2023/01/28 17:39:12;;;;;;;23.50;13.90;;;;;;;-0.46;80.48;100898.96;106096;1263;73489;-87
2023/01/28 17:41:40;;;;;;;26.40;15.00;;;;;;;-0.41;80.23;100897.89;106158;1256;60502;-88
2023/01/28 17:44:10;;;;;;;20.70;12.90;;;;;;;-0.37;79.63;100895.62;106351;1257;61359;-88
2023/01/28 17:46:37;;;;;;;22.30;13.40;;;;;;;-0.41;79.51;100895.30;106609;1257;74117;-87
2023/01/28 17:49:04;;;;;;;20.60;13.20;;;;;;;-0.43;79.56;100888.80;106750;1261;64661;-88
2023/01/28 17:51:31;;;;;;;24.00;14.30;;;;;;;-0.43;79.44;100887.94;106281;1257;74032;-88
2023/01/28 17:54:01;;;;;;;20.00;12.70;;;;;;;-0.41;79.20;100889.81;106709;1258;61434;-88
2023/01/28 17:56:29;;;;;;;19.00;13.80;;;;;;;-0.45;79.06;100886.77;106091;1257;61309;-87
2023/01/28 17:59:02;;;;;;;21.00;12.50;;;;;;;-0.48;78.99;100885.25;105995;1257;71807;-88
2023/01/28 18:01:30;;;;;;;25.10;13.90;;;;;;;-0.50;78.90;100883.04;107141;1259;64176;-87
2023/01/28 18:03:57;;;;;;;23.00;14.50;;;;;;;-0.53;79.12;100879.48;106161;1258;73842;-88
2023/01/28 18:06:30;;;;;;;23.80;13.80;;;;;;;-0.53;79.51;100877.92;106334;1258;60354;-88
2023/01/28 18:08:58;;;;;;;24.70;14.50;;;;;;;-0.48;79.40;100877.86;106131;1262;60869;-88
2023/01/28 18:11:27;;;;;;;22.10;14.30;;;;;;;-0.44;79.35;100882.98;106817;1258;74054;-87
2023/01/28 18:13:54;;;;;;;21.90;13.80;;;;;;;-0.43;79.04;100878.67;107605;1257;65473;-85
2023/01/28 18:16:24;;;;;;;25.00;14.70;;;;;;;-0.48;79.17;100876.14;107339;1257;73729;-88
2023/01/28 18:18:52;;;;;;;21.70;13.70;;;;;;;-0.52;79.18;100874.48;107989;1257;60973;-86
2023/01/28 18:21:35;;;;;;;21.30;14.30;;;;;;;-0.53;79.08;100878.44;107435;1260;60918;-86
2023/01/28 18:24:27;;;;;;;22.60;14.80;;;;;;;-0.53;78.90;100878.79;107775;1260;71945;-85
2023/01/28 18:26:58;;;;;;;22.30;14.20;;;;;;;-0.53;79.44;100873.96;107917;1257;62670;-87
2023/01/28 18:29:35;;;;;;;23.80;14.90;;;;;;;-0.50;79.35;100868.96;108415;1257;72916;-87
2023/01/28 18:32:06;;;;;;;22.10;15.40;;;;;;;-0.47;79.45;100867.02;107714;1257;58633;-86
2023/01/28 18:34:35;;;;;;;26.60;14.80;;;;;;;-0.44;79.46;100865.11;108150;1260;60309;-86
2023/01/28 18:37:07;;;;;;;20.50;14.00;;;;;;;-0.44;79.25;100863.05;107964;1259;71661;-85
2023/01/28 18:39:38;;;;;;;22.60;14.10;;;;;;;-0.44;79.35;100859.09;106503;1256;63930;-89
2023/01/28 18:42:12;;;;;;;24.00;15.20;;;;;;;-0.48;79.08;100862.92;106129;1257;73741;-86
2023/01/28 18:44:42;;;;;;;25.80;14.80;;;;;;;-0.56;79.30;100859.74;105879;1259;60563;-87
2023/01/28 18:47:10;;;;;;;21.90;14.00;;;;;;;-0.61;79.55;100856.70;106355;1254;61843;-87
2023/01/28 18:49:40;;;;;;;20.60;14.00;;;;;;;-0.64;79.57;100857.94;107822;1257;73974;-86
2023/01/28 18:52:14;;;;;;;22.70;15.50;;;;;;;-0.66;79.85;100853.66;108210;1258;62760;-85
2023/01/28 18:54:41;;;;;;;22.10;15.40;;;;;;;-0.59;80.11;100853.59;107201;1257;73718;-86
2023/01/28 18:57:11;;;;;;;24.00;13.30;;;;;;;-0.49;80.14;100850.05;106432;1254;61165;-88
2023/01/28 18:59:41;;;;;;;24.60;13.60;;;;;;;-0.44;79.84;100847.42;106498;1262;60148;-87
2023/01/28 19:02:12;;;;;;;23.80;15.20;;;;;;;-0.44;79.90;100849.32;106260;1256;74150;-89
2023/01/28 19:04:40;;;;;;;24.10;14.10;;;;;;;-0.38;80.34;100846.34;105798;1260;64801;-87
2023/01/28 19:07:09;;;;;;;25.90;17.60;;;;;;;-0.30;80.29;100850.02;106543;1258;74097;-84
2023/01/28 19:09:39;;;;;;;28.90;15.80;;;;;;;-0.18;80.21;100849.02;107971;1262;59879;-86
2023/01/28 19:12:09;;;;;;;22.30;15.50;;;;;;;-0.10;79.90;100854.59;107792;1257;60196;-86
2023/01/28 19:14:40;;;;;;;26.60;15.60;;;;;;;-0.09;79.64;100857.16;107890;1262;71805;-85
2023/01/28 19:17:09;;;;;;;28.60;15.90;;;;;;;-0.06;79.55;100858.49;107401;1261;62822;-85
2023/01/28 19:19:37;;;;;;;25.50;16.70;;;;;;;-0.04;79.31;100856.75;107170;1257;73795;-85
2023/01/28 19:22:09;;;;;;;30.10;17.00;;;;;;;-0.02;79.19;100852.25;106839;1262;59560;-86
2023/01/28 19:24:40;;;;;;;26.20;15.90;;;;;;;-0.03;79.10;100850.19;106910;1256;60046;-84
2023/01/28 19:27:08;;;;;;;22.20;15.30;;;;;;;-0.06;79.18;100848.17;107330;1261;72171;-87
2023/01/28 19:29:36;;;;;;;26.90;14.60;;;;;;;-0.09;79.14;100850.63;107050;1256;64139;-86
2023/01/28 19:32:06;;;;;;;22.20;14.10;;;;;;;-0.12;79.21;100850.32;107346;1257;73025;-86
2023/01/28 19:34:34;;;;;;;18.40;12.60;;;;;;;-0.11;79.63;100851.34;107128;1257;61156;-85
2023/01/28 19:37:02;;;;;;;22.50;14.90;;;;;;;-0.13;79.52;100851.70;107579;1254;59628;-85
2023/01/28 19:39:31;;;;;;;22.20;14.40;;;;;;;-0.14;79.83;100847.77;107319;1257;72984;-85
2023/01/28 19:42:01;;;;;;;22.50;13.30;;;;;;;-0.12;79.86;100848.25;107202;1254;63130;-85
2023/01/28 19:44:28;;;;;;;26.60;14.90;;;;;;;-0.10;79.81;100843.77;107231;1257;73739;-85
2023/01/28 19:47:00;;;;;;;22.60;14.40;;;;;;;-0.12;79.85;100839.15;107285;1259;59789;-85
2023/01/28 19:49:30;;;;;;;24.60;14.80;;;;;;;-0.10;79.87;100842.73;107523;1257;60747;-84
2023/01/28 19:51:58;;;;;;;23.20;13.50;;;;;;;-0.12;79.82;100837.94;107813;1253;72572;-85
2023/01/28 19:54:26;;;;;;;22.10;13.10;;;;;;;-0.13;79.72;100837.11;108018;1253;62672;-86
2023/01/28 19:56:58;;;;;;;24.70;12.50;;;;;;;-0.19;79.78;100836.85;106447;1252;71421;-88
2023/01/28 19:59:26;;;;;;;18.50;12.10;;;;;;;-0.21;80.30;100832.38;106055;1256;61137;-89
2023/01/28 20:01:53;;;;;;;21.50;12.50;;;;;;;-0.21;80.16;100831.55;106583;1257;60069;-88
2023/01/28 20:04:21;;;;;;;20.90;12.00;;;;;;;-0.22;80.47;100829.30;106591;1257;72658;-88
2023/01/28 20:06:48;;;;;;;20.70;12.30;;;;;;;-0.21;80.46;100828.27;106421;1257;65022;-88
2023/01/28 20:09:16;;;;;;;20.70;12.10;;;;;;;-0.22;80.51;100825.02;106475;1256;73615;-88
2023/01/28 20:11:44;;;;;;;18.40;13.20;;;;;;;-0.24;80.53;100824.86;106232;1257;60536;-88
2023/01/28 20:14:10;;;;;;;20.80;12.30;;;;;;;-0.25;80.73;100823.84;106316;1252;61342;-88
2023/01/28 20:16:38;;;;;;;19.90;12.90;;;;;;;-0.22;80.72;100824.32;106529;1254;73665;-88
2023/01/28 20:19:07;;;;;;;17.30;11.80;;;;;;;-0.18;81.09;100818.26;106528;1257;63677;-88
2023/01/28 20:21:34;;;;;;;15.60;10.90;;;;;;;-0.14;80.64;100824.40;106429;1254;72585;-88
2023/01/28 20:24:01;;;;;;;20.80;12.50;;;;;;;-0.17;80.53;100825.11;106323;1266;61090;-88
2023/01/28 20:26:34;;;;;;;18.00;11.00;;;;;;;-0.25;80.61;100827.11;106371;1253;61567;-88
2023/01/28 20:29:09;;;;;;;17.20;10.80;;;;;;;-0.31;80.86;100826.83;106303;1254;73941;-89
2023/01/28 20:31:40;;;;;;;16.00;10.70;;;;;;;-0.32;80.98;100826.50;106151;1257;62697;-88
2023/01/28 20:34:09;;;;;;;16.40;10.30;;;;;;;-0.31;81.12;100829.07;106153;1256;73682;-88
2023/01/28 20:36:35;;;;;;;17.50;10.80;;;;;;;-0.33;81.39;100827.21;105886;1254;60931;-88
2023/01/28 20:39:06;;;;;;;20.90;12.00;;;;;;;-0.31;81.54;100826.48;105936;1258;61169;-89
2023/01/28 20:41:34;;;;;;;22.50;13.30;;;;;;;-0.26;81.88;100825.91;106030;1254;73875;-87
2023/01/28 20:44:01;;;;;;;18.70;11.50;;;;;;;-0.16;81.76;100822.36;106075;1259;63861;-87
2023/01/28 20:46:31;;;;;;;18.80;11.50;;;;;;;-0.07;81.55;100819.48;106204;1258;73663;-87
2023/01/28 20:49:01;;;;;;;21.50;11.20;;;;;;;-0.04;81.35;100816.20;106176;1256;60695;-87
2023/01/28 20:51:30;;;;;;;20.10;11.10;;;;;;;-0.02;81.18;100821.48;106326;1256;60005;-89
2023/01/28 20:53:59;;;;;;;18.80;11.00;;;;;;;-0.01;80.97;100823.20;106376;1254;74718;-88
2023/01/28 20:56:34;;;;;;;18.30;12.50;;;;;;;0.01;80.87;100821.27;106507;1256;63757;-88
2023/01/28 20:59:03;;;;;;;16.70;11.20;;;;;;;0.06;80.75;100820.70;106888;1254;72505;-88
2023/01/28 21:01:33;;;;;;;16.80;11.00;;;;;;;0.09;80.62;100817.73;106493;1258;62304;-87
2023/01/28 21:04:04;;;;;;;14.80;10.90;;;;;;;0.09;80.56;100816.00;106482;1258;60064;-90
2023/01/28 21:06:32;;;;;;;18.20;10.70;;;;;;;0.07;80.72;100812.59;105871;1254;73297;-88
2023/01/28 21:08:59;;;;;;;19.90;11.40;;;;;;;0.10;80.90;100812.57;106207;1260;64112;-87
2023/01/28 21:11:26;;;;;;;17.20;11.50;;;;;;;0.15;81.02;100811.45;105841;1259;74552;-87
2023/01/28 21:13:53;;;;;;;17.20;11.10;;;;;;;0.17;80.61;100807.98;106038;1254;61146;-89
2023/01/28 21:16:20;;;;;;;19.30;11.70;;;;;;;0.13;80.33;100807.37;105799;1257;61331;-89
2023/01/28 21:18:47;;;;;;;22.50;12.80;;;;;;;0.06;80.29;100803.16;105927;1257;74291;-88
2023/01/28 21:21:22;;;;;;;22.70;13.80;;;;;;;0.00;80.60;100802.22;105941;1258;64896;-86
2023/01/28 21:23:50;;;;;;;21.10;11.70;;;;;;;0.01;80.73;100800.48;106205;1260;72269;-88
2023/01/28 21:26:17;;;;;;;18.40;12.30;;;;;;;0.02;80.68;100799.61;105838;1259;60351;-88
2023/01/28 21:28:43;;;;;;;19.40;11.60;;;;;;;0.02;80.61;100797.90;105948;1260;60361;-87
2023/01/28 21:31:14;;;;;;;16.60;10.40;;;;;;;0.02;80.61;100799.79;105887;1263;74134;-86
2023/01/28 21:33:42;;;;;;;17.90;11.50;;;;;;;-0.02;80.54;100797.07;106062;1260;62722;-89
2023/01/28 21:36:13;;;;;;;19.00;11.40;;;;;;;-0.04;80.90;100796.59;105960;1257;72341;-88
2023/01/28 21:38:40;;;;;;;17.60;11.10;;;;;;;-0.04;81.09;100794.52;106003;1259;60513;-89
2023/01/28 21:41:07;;;;;;;21.00;11.40;;;;;;;0.02;81.40;100791.36;106088;1257;60441;-87
2023/01/28 21:43:34;;;;;;;20.20;11.40;;;;;;;0.07;81.15;100789.91;106141;1258;75591;-86
2023/01/28 21:46:02;;;;;;;20.10;10.80;;;;;;;0.09;81.08;100792.12;106265;1258;63878;-85
2023/01/28 21:48:36;;;;;;;17.70;11.60;;;;;;;0.14;81.15;100790.50;106389;1254;72931;-87
2023/01/28 21:53:54;;;;;;;18.00;10.50;;;;;;;0.17;80.57;100784.44;106309;1257;60547;-86
2023/01/28 21:56:25;;;;;;;23.70;12.00;;;;;;;0.12;80.39;100783.15;106472;1254;73855;-87
